Time;durP1;ratioP1;P1;durP2;ratioP2;P2;SDS_P1;SDS_P2;PMS_P1;PMS_P2;Temp;Humidity;BMP_temperature;BMP_pressure;BME280_temperature;BME280_humidity;BME280_pressure;Samples;Min_cycle;Max_cycle;Signal;HPM_P1;HPM_P2
2020/12/17 08:33:45;;;;;;;15.73;11.07;;;5.00;98.10;;;;;;5002473;23;20313;-96
2020/12/17 08:36:16;;;;;;;19.77;12.32;;;5.00;98.60;;;;;;4996888;28;20400;-96
2020/12/17 08:38:57;;;;;;;14.05;9.57;;;5.10;98.30;;;;;;5002405;28;20050;-96
2020/12/17 08:41:29;;;;;;;16.27;10.55;;;5.20;98.80;;;;;;4994758;28;20042;-95
2020/12/17 08:44:05;;;;;;;14.85;9.60;;;5.30;98.70;;;;;;4996192;28;20078;-94
2020/12/17 08:46:34;;;;;;;;;;;5.40;98.60;;;;;;4994974;28;20053;-94
2020/12/17 08:49:05;;;;;;;12.55;8.27;;;5.50;98.60;;;;;;4996510;28;20417;-95
2020/12/17 08:51:33;;;;;;;15.18;10.32;;;5.60;98.60;;;;;;4997373;28;20043;-96
2020/12/17 08:54:00;;;;;;;14.70;9.27;;;5.70;98.60;;;;;;4996072;28;20541;-96
2020/12/17 08:56:27;;;;;;;16.55;10.63;;;5.70;98.50;;;;;;4994645;28;20054;-96
2020/12/17 08:58:59;;;;;;;18.15;11.80;;;5.80;98.40;;;;;;4995462;28;20057;-96
2020/12/17 09:01:28;;;;;;;20.75;12.90;;;5.80;98.30;;;;;;4999145;28;20137;-96
2020/12/17 09:03:57;;;;;;;20.52;12.15;;;6.00;98.10;;;;;;4999043;28;20078;-96
2020/12/17 09:06:31;;;;;;;18.73;11.68;;;5.90;98.00;;;;;;4999594;28;20065;-96
2020/12/17 09:09:14;;;;;;;17.87;12.37;;;5.90;97.80;;;;;;4998761;28;20050;-93
2020/12/17 09:11:41;;;;;;;21.73;12.38;;;5.90;98.10;;;;;;4999512;28;20385;-93
2020/12/17 09:14:10;;;;;;;18.92;11.85;;;6.10;98.10;;;;;;4996691;28;20554;-95
2020/12/17 09:16:41;;;;;;;17.30;10.55;;;5.90;98.00;;;;;;4997844;28;20052;-95
2020/12/17 09:19:09;;;;;;;14.98;9.60;;;6.10;98.00;;;;;;5000017;28;20058;-93
2020/12/17 09:21:56;;;;;;;13.68;9.30;;;6.20;98.00;;;;;;4999649;28;20054;-95
2020/12/17 09:24:26;;;;;;;11.85;7.75;;;6.30;98.60;;;;;;4999445;28;20145;-96
2020/12/17 09:26:53;;;;;;;12.07;7.63;;;6.20;98.50;;;;;;4998355;28;20058;-95
2020/12/17 09:29:20;;;;;;;9.52;6.53;;;6.30;98.50;;;;;;4998664;28;20140;-96
2020/12/17 09:31:47;;;;;;;10.38;7.28;;;6.40;98.60;;;;;;5008341;28;20081;-92
2020/12/17 09:34:17;;;;;;;11.40;7.53;;;6.40;98.50;;;;;;5004936;28;20059;-94
2020/12/17 09:36:55;;;;;;;12.75;8.75;;;6.60;98.90;;;;;;5006233;28;20090;-95
2020/12/17 09:39:22;;;;;;;16.30;10.05;;;6.50;99.50;;;;;;5015892;28;20051;-93
2020/12/17 09:41:55;;;;;;;17.65;9.95;;;6.60;99.00;;;;;;5015599;28;20054;-93
2020/12/17 09:44:30;;;;;;;15.50;9.25;;;6.60;98.80;;;;;;5015995;28;20034;-93
2020/12/17 09:46:58;;;;;;;16.45;10.35;;;6.80;98.90;;;;;;5018797;28;20050;-93
2020/12/17 09:49:33;;;;;;;14.02;9.35;;;6.80;98.80;;;;;;5002939;28;20068;-93
2020/12/17 09:52:09;;;;;;;15.60;9.18;;;6.90;98.80;;;;;;5019164;28;20042;-93
2020/12/17 09:54:40;;;;;;;14.13;9.60;;;6.90;98.60;;;;;;5018529;28;20050;-93
2020/12/17 09:57:10;;;;;;;14.40;9.45;;;7.00;98.50;;;;;;5019352;28;20042;-92
2020/12/17 09:59:39;;;;;;;13.75;8.88;;;6.90;98.10;;;;;;5018471;28;20050;-93
2020/12/17 10:02:08;;;;;;;12.55;9.20;;;7.00;98.10;;;;;;5016244;28;20054;-91
2020/12/17 10:04:35;;;;;;;12.63;7.75;;;7.10;98.10;;;;;;5015916;28;20119;-96
2020/12/17 10:07:02;;;;;;;9.57;6.57;;;7.10;98.10;;;;;;5015507;28;20123;-95
2020/12/17 10:09:30;;;;;;;11.23;7.18;;;7.30;97.90;;;;;;5017035;28;20054;-95
2020/12/17 10:11:58;;;;;;;12.85;8.20;;;7.20;97.90;;;;;;5018318;28;20114;-93
2020/12/17 10:14:26;;;;;;;12.38;7.85;;;7.30;98.10;;;;;;5019532;28;20038;-94
2020/12/17 10:16:58;;;;;;;11.20;7.63;;;7.30;97.90;;;;;;5017556;28;20084;-93
2020/12/17 10:19:29;;;;;;;12.27;7.93;;;7.30;98.00;;;;;;5017943;28;20068;-94
2020/12/17 10:21:57;;;;;;;10.80;7.72;;;7.40;98.20;;;;;;5017561;28;20065;-94
2020/12/17 10:24:24;;;;;;;11.95;7.97;;;7.40;98.40;;;;;;5013322;28;20082;-94
2020/12/17 10:26:53;;;;;;;12.75;8.73;;;7.70;98.10;;;;;;5005332;28;20057;-94
2020/12/17 10:29:20;;;;;;;10.18;7.35;;;7.70;98.10;;;;;;5003459;28;20078;-94
2020/12/17 10:31:47;;;;;;;8.95;6.53;;;7.60;97.60;;;;;;5002857;28;20058;-94
2020/12/17 10:34:16;;;;;;;9.32;6.40;;;7.70;97.70;;;;;;5004365;28;20058;-94
2020/12/17 10:36:43;;;;;;;11.07;5.82;;;7.80;97.60;;;;;;4999114;28;20554;-93
2020/12/17 10:39:11;;;;;;;8.20;5.60;;;7.80;97.30;;;;;;4999848;28;20466;-92
2020/12/17 10:41:45;;;;;;;7.25;5.00;;;7.90;97.50;;;;;;5001348;28;20050;-93
2020/12/17 10:44:13;;;;;;;8.68;5.60;;;7.90;97.40;;;;;;5000268;28;20081;-93
2020/12/17 10:46:40;;;;;;;8.73;5.40;;;7.90;97.30;;;;;;5012254;28;20057;-93
2020/12/17 10:49:07;;;;;;;9.50;4.90;;;8.00;97.00;;;;;;5015956;28;20031;-94
2020/12/17 10:51:35;;;;;;;7.50;4.75;;;8.10;97.10;;;;;;5014206;28;20066;-94
2020/12/17 10:54:03;;;;;;;7.85;4.65;;;8.10;96.80;;;;;;5015794;28;20494;-94
2020/12/17 10:56:30;;;;;;;7.63;4.40;;;8.30;96.70;;;;;;5010526;28;20085;-93
2020/12/17 10:58:57;;;;;;;9.45;5.38;;;8.40;96.40;;;;;;5006644;28;20133;-93
2020/12/17 11:01:25;;;;;;;10.32;5.97;;;8.40;96.10;;;;;;5006327;28;20565;-93
2020/12/17 11:03:53;;;;;;;10.13;4.60;;;8.50;96.20;;;;;;5008420;28;20055;-92
2020/12/17 11:06:22;;;;;;;7.13;4.35;;;8.60;96.20;;;;;;5008770;28;20050;-94
2020/12/17 11:08:49;;;;;;;6.63;4.13;;;8.70;95.90;;;;;;5004471;28;20058;-94
2020/12/17 11:11:16;;;;;;;6.90;4.30;;;8.70;95.90;;;;;;5003954;28;20077;-93
2020/12/17 11:13:50;;;;;;;7.22;3.92;;;8.70;96.00;;;;;;5001071;28;20109;-93
2020/12/17 11:16:29;;;;;;;7.55;3.85;;;8.80;95.70;;;;;;5001618;28;20591;-92
2020/12/17 11:18:59;;;;;;;7.05;4.00;;;8.90;95.50;;;;;;4998100;28;20085;-92
2020/12/17 11:21:26;;;;;;;7.50;3.60;;;9.10;95.20;;;;;;4998928;28;20409;-93
2020/12/17 11:23:53;;;;;;;6.40;3.70;;;9.30;95.10;;;;;;4995377;28;20137;-94
2020/12/17 11:26:19;;;;;;;6.88;3.80;;;9.30;94.70;;;;;;4999017;28;20441;-93
2020/12/17 11:28:46;;;;;;;6.45;3.85;;;9.40;94.60;;;;;;4998127;28;20081;-93
2020/12/17 11:31:13;;;;;;;6.13;3.50;;;9.50;94.80;;;;;;4995486;28;20058;-92
2020/12/17 11:33:41;;;;;;;5.85;3.58;;;9.50;94.60;;;;;;4985898;28;20093;-91
2020/12/17 11:36:09;;;;;;;5.97;3.60;;;9.50;94.50;;;;;;4986141;28;20071;-92
2020/12/17 11:38:37;;;;;;;6.22;3.42;;;9.50;94.40;;;;;;4988327;28;20046;-92
2020/12/17 11:41:04;;;;;;;6.43;3.90;;;9.50;94.30;;;;;;4985800;28;20062;-93
2020/12/17 11:43:30;;;;;;;6.30;3.63;;;9.50;94.40;;;;;;4967375;28;20070;-94
2020/12/17 11:45:57;;;;;;;6.80;3.90;;;9.50;94.60;;;;;;4987235;28;20078;-92
2020/12/17 11:48:24;;;;;;;5.78;3.60;;;9.40;94.90;;;;;;4987275;28;20035;-92
2020/12/17 11:50:52;;;;;;;8.00;3.30;;;9.40;95.20;;;;;;4981401;28;20091;-93
2020/12/17 11:53:18;;;;;;;6.60;3.40;;;9.30;95.20;;;;;;4943762;28;20046;-92
2020/12/17 11:55:47;;;;;;;6.78;3.40;;;9.30;95.30;;;;;;4975874;28;20456;-94
2020/12/17 11:58:14;;;;;;;5.72;3.45;;;9.30;95.50;;;;;;4976913;28;20137;-93
2020/12/17 12:00:40;;;;;;;6.75;3.55;;;9.20;95.70;;;;;;4960006;28;20085;-93
2020/12/17 12:03:07;;;;;;;6.40;3.72;;;9.30;95.40;;;;;;4976015;28;20463;-92
2020/12/17 12:05:33;;;;;;;5.47;3.55;;;9.30;95.20;;;;;;4975871;28;20119;-93
2020/12/17 12:08:05;;;;;;;10.07;6.32;;;9.30;95.10;;;;;;4977945;28;20576;-94
2020/12/17 12:10:31;;;;;;;19.25;10.80;;;9.30;95.20;;;;;;4978342;28;20472;-94
2020/12/17 12:12:58;;;;;;;9.30;5.35;;;9.40;94.80;;;;;;4959908;28;20507;-93
2020/12/17 12:15:25;;;;;;;6.82;3.97;;;9.50;94.50;;;;;;4978490;28;20047;-91
2020/12/17 12:17:52;;;;;;;6.43;3.92;;;9.50;94.40;;;;;;4977812;28;20138;-92
2020/12/17 12:20:19;;;;;;;7.68;4.35;;;9.50;94.40;;;;;;4977298;28;20070;-92
2020/12/17 12:22:46;;;;;;;7.07;4.10;;;9.50;94.50;;;;;;4960163;28;20110;-92
2020/12/17 12:25:14;;;;;;;7.15;3.80;;;9.50;94.60;;;;;;4976111;28;20204;-93
2020/12/17 12:27:41;;;;;;;6.60;4.20;;;9.50;94.80;;;;;;4975747;28;20141;-91
2020/12/17 12:30:07;;;;;;;7.50;3.75;;;9.50;94.80;;;;;;4975647;28;20043;-91
2020/12/17 12:32:34;;;;;;;6.95;4.10;;;9.50;94.90;;;;;;4990593;28;20133;-91
2020/12/17 12:35:01;;;;;;;7.47;4.28;;;9.50;94.80;;;;;;4995943;28;20130;-91
2020/12/17 12:37:27;;;;;;;6.45;4.00;;;9.50;94.70;;;;;;4997253;28;20104;-91
2020/12/17 12:39:54;;;;;;;9.70;4.38;;;9.50;94.70;;;;;;4998419;28;20125;-90
2020/12/17 12:42:22;;;;;;;6.68;3.88;;;9.50;94.80;;;;;;4997904;28;20058;-91
2020/12/17 12:44:49;;;;;;;8.82;4.40;;;9.50;94.60;;;;;;4980676;28;20061;-93
2020/12/17 12:47:15;;;;;;;7.63;4.40;;;9.60;94.70;;;;;;4998334;28;20076;-90
2020/12/17 12:49:42;;;;;;;6.85;3.85;;;9.70;94.60;;;;;;4998135;28;20081;-89
2020/12/17 12:52:09;;;;;;;7.38;4.10;;;9.80;94.50;;;;;;4997455;28;20506;-89
2020/12/17 12:54:35;;;;;;;6.22;3.90;;;9.80;94.30;;;;;;4981177;28;20079;-90
2020/12/17 12:57:03;;;;;;;11.35;4.15;;;9.80;94.30;;;;;;4997536;28;20125;-85
2020/12/17 12:59:31;;;;;;;8.18;4.47;;;9.90;94.30;;;;;;4995478;28;20054;-88
2020/12/17 13:01:57;;;;;;;9.45;5.30;;;9.90;94.40;;;;;;4997493;28;20113;-88
2020/12/17 13:04:24;;;;;;;25.58;11.73;;;9.90;94.40;;;;;;4996219;28;20134;-89
2020/12/17 13:06:51;;;;;;;13.70;6.80;;;10.00;94.50;;;;;;4995768;28;20473;-90
2020/12/17 13:09:18;;;;;;;7.85;3.88;;;10.00;94.50;;;;;;5001743;28;20141;-92
2020/12/17 13:11:45;;;;;;;6.93;3.80;;;10.00;94.40;;;;;;4997949;28;20074;-91
2020/12/17 13:14:12;;;;;;;9.77;4.10;;;10.10;94.60;;;;;;4997520;28;20050;-90
2020/12/17 13:16:40;;;;;;;9.10;4.57;;;9.90;94.60;;;;;;4995997;28;20504;-91
2020/12/17 13:19:06;;;;;;;8.68;4.32;;;9.90;94.80;;;;;;4996736;28;20100;-91
2020/12/17 13:21:33;;;;;;;6.75;4.32;;;9.80;95.00;;;;;;4996475;28;20524;-89
2020/12/17 13:23:59;;;;;;;7.68;4.25;;;9.90;95.10;;;;;;4995546;28;20069;-89
2020/12/17 13:26:26;;;;;;;7.55;4.70;;;9.90;95.00;;;;;;4996573;28;20058;-88
2020/12/17 13:28:53;;;;;;;8.10;4.30;;;9.90;95.10;;;;;;4996615;28;20137;-90
2020/12/17 13:31:22;;;;;;;8.00;4.05;;;10.00;95.00;;;;;;4978947;28;20055;-87
2020/12/17 13:33:50;;;;;;;8.13;4.43;;;10.00;95.10;;;;;;4977873;28;20054;-88
2020/12/17 13:36:18;;;;;;;8.13;3.97;;;10.00;95.00;;;;;;4960875;28;20460;-87
2020/12/17 13:38:45;;;;;;;8.23;4.30;;;9.90;94.70;;;;;;4978966;28;20047;-89
2020/12/17 13:41:11;;;;;;;7.32;4.38;;;9.90;95.00;;;;;;4980873;28;20097;-90
2020/12/17 13:43:38;;;;;;;10.75;4.38;;;9.90;94.80;;;;;;4963673;28;20050;-90
2020/12/17 13:46:05;;;;;;;8.15;4.60;;;9.80;94.70;;;;;;4979142;28;20584;-89
2020/12/17 13:48:32;;;;;;;7.05;4.05;;;9.90;95.30;;;;;;4977947;28;20102;-90
2020/12/17 13:50:59;;;;;;;6.90;4.15;;;10.00;95.10;;;;;;4980624;28;20393;-89
2020/12/17 13:53:26;;;;;;;7.05;4.13;;;10.00;95.00;;;;;;4992946;28;20058;-88
2020/12/17 13:55:54;;;;;;;9.82;4.60;;;10.00;95.00;;;;;;4968424;28;20085;-88
2020/12/17 13:58:21;;;;;;;7.57;3.60;;;10.10;95.00;;;;;;4978191;28;20061;-87
2020/12/17 14:00:47;;;;;;;7.38;3.92;;;10.50;94.40;;;;;;4976381;28;20082;-87
2020/12/17 14:03:14;;;;;;;6.95;3.90;;;10.70;93.60;;;;;;4976413;28;20062;-88
2020/12/17 14:05:40;;;;;;;7.88;3.72;;;10.80;93.50;;;;;;4975658;28;20053;-88
2020/12/17 14:08:08;;;;;;;6.28;3.70;;;10.80;93.80;;;;;;4976175;28;20489;-88
2020/12/17 14:10:35;;;;;;;6.55;4.30;;;10.60;93.80;;;;;;4976570;28;20575;-88
2020/12/17 14:13:01;;;;;;;6.50;3.85;;;10.50;93.80;;;;;;4975937;28;20382;-88
2020/12/17 14:15:28;;;;;;;7.45;4.28;;;10.40;94.30;;;;;;4976043;28;20142;-88
2020/12/17 14:17:54;;;;;;;6.95;4.15;;;10.30;94.50;;;;;;4982860;28;20177;-88
2020/12/17 14:20:21;;;;;;;8.40;4.47;;;10.30;94.70;;;;;;4986103;28;20073;-88
2020/12/17 14:22:48;;;;;;;7.47;4.20;;;10.50;94.60;;;;;;4986711;28;20051;-87
2020/12/17 14:25:15;;;;;;;9.02;4.40;;;10.70;94.20;;;;;;4975915;28;20109;-85
2020/12/17 14:27:42;;;;;;;8.45;4.10;;;11.40;93.20;;;;;;4975427;28;20050;-87
2020/12/17 14:30:10;;;;;;;6.35;3.72;;;12.00;91.70;;;;;;4977328;28;20138;-88
2020/12/17 14:32:36;;;;;;;8.07;4.15;;;12.20;90.90;;;;;;4984017;28;20419;-87
2020/12/17 14:35:04;;;;;;;7.20;4.40;;;12.00;90.90;;;;;;4995258;28;20145;-88
2020/12/17 14:37:31;;;;;;;7.05;4.30;;;11.80;91.40;;;;;;4996424;28;20074;-92
2020/12/17 14:39:57;;;;;;;7.70;4.22;;;11.40;92.10;;;;;;5005740;28;20084;-87
2020/12/17 14:42:26;;;;;;;7.25;4.05;;;11.20;92.60;;;;;;4995361;28;20082;-87
2020/12/17 14:44:53;;;;;;;7.55;4.13;;;11.00;93.00;;;;;;4977679;28;20054;-86
2020/12/17 14:47:20;;;;;;;7.03;4.03;;;10.80;93.30;;;;;;4977331;28;20082;-87
2020/12/17 14:49:48;;;;;;;8.23;4.38;;;10.70;93.60;;;;;;4977722;28;20042;-86
2020/12/17 14:52:15;;;;;;;7.55;3.95;;;10.60;93.80;;;;;;4994370;28;20048;-85
2020/12/17 14:54:42;;;;;;;9.02;3.90;;;10.50;94.00;;;;;;4977394;28;20559;-84
2020/12/17 14:57:08;;;;;;;7.75;4.30;;;10.40;94.20;;;;;;4976718;28;20060;-85
2020/12/17 14:59:36;;;;;;;6.88;4.47;;;10.50;94.30;;;;;;4977207;28;20084;-85
2020/12/17 15:02:03;;;;;;;9.75;4.50;;;10.50;94.40;;;;;;4994857;28;20085;-84
2020/12/17 15:04:29;;;;;;;7.40;4.45;;;10.50;94.40;;;;;;4993389;28;20270;-84
2020/12/17 15:06:56;;;;;;;7.53;4.57;;;10.40;94.40;;;;;;4994164;28;20140;-85
2020/12/17 15:09:22;;;;;;;8.73;4.38;;;10.40;94.60;;;;;;4993783;28;20133;-84
2020/12/17 15:11:51;;;;;;;9.73;4.57;;;10.50;94.30;;;;;;4994208;28;20077;-84
2020/12/17 15:14:17;;;;;;;8.82;4.63;;;10.40;94.50;;;;;;4993998;28;20104;-85
2020/12/17 15:16:45;;;;;;;8.00;4.53;;;10.40;94.30;;;;;;4993840;28;20137;-84
2020/12/17 15:19:11;;;;;;;9.70;4.57;;;10.40;94.40;;;;;;4993247;28;20145;-85
2020/12/17 15:21:38;;;;;;;7.55;4.57;;;10.40;94.50;;;;;;4993612;28;20487;-84
2020/12/17 15:24:05;;;;;;;9.20;5.07;;;10.30;94.60;;;;;;4994389;28;20133;-85
2020/12/17 15:26:31;;;;;;;9.05;4.65;;;10.20;94.70;;;;;;4993674;28;20483;-84
2020/12/17 15:28:58;;;;;;;11.68;4.93;;;10.30;95.00;;;;;;4993177;28;20133;-84
2020/12/17 15:31:25;;;;;;;9.88;5.43;;;10.30;94.90;;;;;;4992735;28;20478;-84
2020/12/17 15:33:52;;;;;;;8.27;4.55;;;10.40;95.00;;;;;;4993701;28;20455;-84
2020/12/17 15:36:23;;;;;;;8.05;4.30;;;10.20;95.00;;;;;;4993807;28;20133;-84
2020/12/17 15:38:50;;;;;;;8.88;4.60;;;10.40;95.10;;;;;;4994264;28;20054;-88
2020/12/17 15:41:16;;;;;;;7.72;4.28;;;10.20;95.10;;;;;;4993376;28;20124;-84
2020/12/17 15:43:43;;;;;;;7.35;4.13;;;10.20;95.20;;;;;;4993017;28;20138;-84
2020/12/17 15:46:10;;;;;;;8.68;4.60;;;10.20;95.30;;;;;;4993198;28;20054;-84
2020/12/17 15:48:38;;;;;;;8.05;4.70;;;10.20;95.30;;;;;;4993540;28;20141;-85
2020/12/17 15:51:08;;;;;;;8.93;4.75;;;10.20;95.30;;;;;;4993510;28;20054;-83
2020/12/17 15:53:35;;;;;;;7.35;4.47;;;10.20;95.30;;;;;;4993369;28;20129;-87
2020/12/17 15:56:02;;;;;;;9.90;4.63;;;10.20;95.20;;;;;;4996018;28;20105;-91
2020/12/17 15:58:28;;;;;;;7.55;4.35;;;10.30;95.30;;;;;;4977080;28;20060;-90
2020/12/17 16:00:55;;;;;;;8.13;4.68;;;10.20;95.30;;;;;;4992761;28;20499;-87
2020/12/17 16:03:22;;;;;;;9.60;5.75;;;10.20;95.30;;;;;;4974448;28;20100;-86
2020/12/17 16:05:49;;;;;;;8.98;4.68;;;10.20;95.30;;;;;;4991547;28;20556;-87
2020/12/17 16:08:17;;;;;;;8.07;4.55;;;10.20;95.40;;;;;;4992287;28;20559;-94
2020/12/17 16:10:44;;;;;;;7.75;4.32;;;10.10;95.60;;;;;;4996186;28;20051;-93
2020/12/17 16:13:11;;;;;;;8.77;5.20;;;10.20;95.60;;;;;;4997666;28;20088;-95
2020/12/17 16:15:37;;;;;;;9.18;4.70;;;10.20;95.60;;;;;;4998023;28;20133;-96
2020/12/17 16:18:07;;;;;;;8.50;4.70;;;10.20;95.60;;;;;;4989306;28;20584;-95
2020/12/17 16:20:34;;;;;;;9.32;5.03;;;10.20;95.60;;;;;;4988354;28;20097;-95
2020/12/17 16:23:09;;;;;;;7.85;4.40;;;10.20;95.60;;;;;;5015580;28;20058;-94
2020/12/17 16:25:37;;;;;;;7.68;4.70;;;10.20;95.70;;;;;;5008154;28;20463;-95
2020/12/17 16:28:27;;;;;;;9.23;5.13;;;10.10;95.80;;;;;;5012837;28;20038;-93
2020/12/17 16:30:54;;;;;;;7.88;4.78;;;10.20;95.80;;;;;;4989620;28;20046;-92
2020/12/17 16:33:21;;;;;;;8.20;4.70;;;10.20;95.70;;;;;;4997966;28;20109;-96
2020/12/17 16:35:50;;;;;;;8.05;4.60;;;10.20;95.70;;;;;;4997385;28;20066;-92
2020/12/17 16:38:17;;;;;;;9.27;4.95;;;10.20;95.60;;;;;;4999876;28;20128;-93
2020/12/17 16:40:45;;;;;;;8.45;4.60;;;10.20;95.70;;;;;;4997828;28;20085;-91
2020/12/17 16:43:11;;;;;;;11.18;4.60;;;10.20;95.60;;;;;;4991701;28;20563;-91
2020/12/17 16:45:38;;;;;;;7.20;4.57;;;10.20;95.70;;;;;;5003690;28;20129;-92
2020/12/17 16:48:05;;;;;;;8.40;4.78;;;10.20;95.70;;;;;;5005101;28;20137;-92
2020/12/17 16:50:32;;;;;;;7.97;4.80;;;10.20;95.60;;;;;;5005041;28;20043;-93
2020/12/17 16:53:03;;;;;;;12.45;7.05;;;10.20;95.70;;;;;;4976268;28;20056;-91
2020/12/17 16:55:29;;;;;;;15.18;8.80;;;10.10;96.10;;;;;;5004873;28;20482;-90
2020/12/17 16:57:57;;;;;;;14.60;8.35;;;10.10;96.30;;;;;;5007302;28;20515;-91
2020/12/17 17:00:24;;;;;;;11.60;7.32;;;10.10;96.40;;;;;;5007067;28;20070;-91
2020/12/17 17:02:51;;;;;;;11.57;7.15;;;10.00;96.50;;;;;;4985420;28;20118;-90
2020/12/17 17:05:18;;;;;;;10.45;6.50;;;10.00;96.40;;;;;;4980939;28;20134;-91
2020/12/17 17:07:46;;;;;;;14.73;7.55;;;10.10;96.50;;;;;;4987586;28;20137;-90
2020/12/17 17:10:13;;;;;;;15.93;8.63;;;10.00;96.50;;;;;;4986947;28;20058;-92
2020/12/17 17:12:40;;;;;;;13.88;8.10;;;10.00;96.50;;;;;;4994928;28;20423;-92
2020/12/17 17:15:08;;;;;;;12.68;7.85;;;10.00;96.50;;;;;;4992750;28;20070;-93
2020/12/17 17:17:35;;;;;;;14.70;9.23;;;10.00;96.50;;;;;;4998708;28;20130;-93
2020/12/17 17:20:05;;;;;;;15.10;8.63;;;10.00;96.50;;;;;;4965387;28;20108;-93
2020/12/17 17:22:32;;;;;;;13.30;8.02;;;10.00;96.60;;;;;;4997517;28;20061;-92
2020/12/17 17:25:01;;;;;;;12.30;7.38;;;10.00;96.60;;;;;;4992958;28;20097;-92
2020/12/17 17:27:28;;;;;;;12.70;7.75;;;10.00;96.70;;;;;;5022666;28;20039;-93
2020/12/17 17:29:55;;;;;;;13.18;7.32;;;10.00;96.80;;;;;;5001951;28;20096;-93
2020/12/17 17:32:23;;;;;;;14.75;6.88;;;9.90;96.60;;;;;;5001372;28;20066;-93
2020/12/17 17:34:50;;;;;;;12.07;6.40;;;9.90;96.80;;;;;;4957052;28;20089;-93
2020/12/17 17:37:17;;;;;;;11.90;6.95;;;9.90;96.90;;;;;;4980392;28;20047;-93
2020/12/17 17:39:44;;;;;;;12.27;6.30;;;9.90;96.90;;;;;;4964715;28;20076;-94
2020/12/17 17:42:12;;;;;;;10.93;6.72;;;9.90;97.00;;;;;;4979628;28;20134;-94
2020/12/17 17:44:39;;;;;;;10.55;7.10;;;9.80;96.90;;;;;;4981397;28;20055;-93
2020/12/17 17:47:06;;;;;;;13.32;6.70;;;9.90;96.90;;;;;;4965676;28;20385;-90
2020/12/17 17:49:34;;;;;;;11.63;6.78;;;9.80;97.00;;;;;;4996398;28;20052;-89
2020/12/17 17:52:03;;;;;;;10.40;7.07;;;9.80;97.10;;;;;;4996178;28;20487;-90
2020/12/17 17:54:31;;;;;;;10.75;6.32;;;9.70;97.20;;;;;;4995264;28;20129;-91
2020/12/17 17:56:59;;;;;;;10.40;6.47;;;9.70;97.30;;;;;;4996039;28;20078;-89
2020/12/17 17:59:25;;;;;;;11.70;6.35;;;9.60;97.40;;;;;;4996248;28;20051;-89
2020/12/17 18:01:53;;;;;;;11.10;6.00;;;9.60;97.60;;;;;;4997160;28;20149;-89
2020/12/17 18:04:21;;;;;;;11.93;6.10;;;9.50;97.70;;;;;;5002455;28;20058;-90
2020/12/17 18:06:48;;;;;;;10.88;5.57;;;9.60;97.70;;;;;;4979010;28;20138;-89
2020/12/17 18:09:15;;;;;;;10.95;6.45;;;9.50;97.70;;;;;;4996235;28;20479;-94
2020/12/17 18:11:43;;;;;;;14.77;8.38;;;9.50;97.60;;;;;;4996695;28;20105;-91
2020/12/17 18:14:11;;;;;;;18.40;11.25;;;9.50;97.80;;;;;;4995928;28;20137;-93
2020/12/17 18:16:39;;;;;;;17.17;10.13;;;9.50;97.90;;;;;;4996516;28;20043;-95
2020/12/17 18:19:06;;;;;;;15.50;9.95;;;9.50;97.80;;;;;;4979500;28;20042;-93
2020/12/17 18:21:34;;;;;;;19.40;11.40;;;9.50;97.80;;;;;;4978377;28;20121;-91
2020/12/17 18:24:02;;;;;;;15.52;10.45;;;9.50;97.90;;;;;;4996399;28;20129;-96
2020/12/17 18:26:29;;;;;;;15.88;10.18;;;9.50;97.90;;;;;;4978999;28;20137;-85
2020/12/17 18:28:56;;;;;;;16.30;10.50;;;9.50;97.90;;;;;;4978821;28;20460;-91
2020/12/17 18:31:23;;;;;;;15.23;10.20;;;9.50;98.00;;;;;;4978792;28;20049;-92
2020/12/17 18:33:50;;;;;;;18.05;10.35;;;9.50;97.80;;;;;;4991801;28;20057;-94
2020/12/17 18:36:17;;;;;;;17.80;11.02;;;9.50;97.80;;;;;;4992052;28;20488;-95
2020/12/17 18:38:46;;;;;;;15.73;8.90;;;9.50;98.00;;;;;;4996475;28;20043;-95
2020/12/17 18:41:14;;;;;;;15.18;8.48;;;9.40;98.00;;;;;;4995253;28;20460;-95
2020/12/17 18:43:43;;;;;;;11.73;7.68;;;9.30;98.10;;;;;;4993722;28;20138;-94
2020/12/17 18:46:10;;;;;;;14.00;7.97;;;9.20;98.00;;;;;;4996324;28;20137;-92
2020/12/17 18:48:37;;;;;;;13.93;8.55;;;9.20;98.10;;;;;;4994009;28;20092;-85
2020/12/17 18:51:04;;;;;;;18.63;10.45;;;9.10;98.30;;;;;;4995020;28;20061;-88
2020/12/17 18:53:30;;;;;;;19.40;10.18;;;9.10;98.70;;;;;;4994927;28;20141;-90
2020/12/17 18:55:57;;;;;;;15.00;9.70;;;9.10;98.80;;;;;;4994638;28;20050;-90
2020/12/17 18:58:24;;;;;;;15.50;9.52;;;9.00;98.70;;;;;;4991639;28;20134;-90
2020/12/17 19:00:51;;;;;;;16.58;10.25;;;8.90;98.70;;;;;;4993794;28;20077;-92
2020/12/17 19:03:18;;;;;;;24.88;13.93;;;8.90;98.90;;;;;;4995233;28;20085;-91
2020/12/17 19:05:45;;;;;;;22.08;12.80;;;8.90;98.80;;;;;;4994226;28;20129;-92
2020/12/17 19:08:11;;;;;;;27.23;15.35;;;8.90;98.80;;;;;;4996017;28;20050;-92
2020/12/17 19:10:38;;;;;;;16.65;10.85;;;8.60;99.00;;;;;;4996080;28;20073;-92
2020/12/17 19:13:05;;;;;;;20.70;11.95;;;8.70;98.90;;;;;;4991345;28;20050;-93
2020/12/17 19:15:33;;;;;;;23.85;13.50;;;8.60;98.90;;;;;;4994845;28;20136;-93
2020/12/17 19:18:00;;;;;;;18.48;10.45;;;8.60;99.30;;;;;;4994987;28;20058;-92
2020/12/17 19:20:27;;;;;;;20.13;11.38;;;8.60;99.30;;;;;;5000187;28;20114;-92
2020/12/17 19:22:55;;;;;;;22.58;12.00;;;8.50;99.00;;;;;;5000209;28;20117;-91
2020/12/17 19:25:21;;;;;;;18.63;11.05;;;8.60;99.00;;;;;;4995134;28;20125;-91
2020/12/17 19:27:49;;;;;;;19.80;11.05;;;8.60;99.10;;;;;;4987715;28;20058;-91
2020/12/17 19:30:15;;;;;;;17.73;10.55;;;8.60;98.90;;;;;;4990777;28;20054;-92
2020/12/17 19:32:43;;;;;;;15.38;9.40;;;8.60;99.10;;;;;;5002276;28;20072;-91
2020/12/17 19:35:10;;;;;;;12.98;7.65;;;8.70;99.10;;;;;;4989927;28;20086;-91
2020/12/17 19:37:37;;;;;;;15.15;8.18;;;8.60;98.70;;;;;;4986718;28;20047;-90
2020/12/17 19:40:05;;;;;;;12.93;7.68;;;8.70;99.10;;;;;;4982580;28;20042;-89
2020/12/17 19:42:36;;;;;;;14.48;8.43;;;8.70;99.10;;;;;;4989847;28;20050;-90
2020/12/17 19:45:03;;;;;;;15.23;9.23;;;8.80;99.20;;;;;;4989143;28;20133;-90
2020/12/17 19:47:30;;;;;;;16.17;9.43;;;8.80;99.10;;;;;;4992930;28;20174;-92
2020/12/17 19:49:57;;;;;;;15.18;8.27;;;8.90;99.00;;;;;;4993317;28;20141;-92
2020/12/17 19:52:24;;;;;;;14.35;8.45;;;8.90;98.50;;;;;;4993340;28;20070;-91
2020/12/17 19:54:50;;;;;;;12.48;7.65;;;8.90;98.60;;;;;;4992888;28;20058;-96
2020/12/17 19:57:18;;;;;;;15.25;8.18;;;9.00;98.20;;;;;;4990379;28;20050;-87
2020/12/17 19:59:44;;;;;;;13.57;7.90;;;8.90;98.00;;;;;;4993119;28;20138;-90
2020/12/17 20:02:11;;;;;;;11.95;7.25;;;8.70;98.00;;;;;;4993870;28;20137;-91
2020/12/17 20:04:39;;;;;;;13.07;7.05;;;8.80;98.00;;;;;;4993322;28;20559;-93
2020/12/17 20:07:11;;;;;;;14.13;7.43;;;8.80;98.00;;;;;;4993936;28;20129;-91
2020/12/17 20:09:39;;;;;;;12.80;8.30;;;8.70;98.10;;;;;;4977346;28;20054;-93
2020/12/17 20:12:06;;;;;;;13.85;9.02;;;8.70;98.60;;;;;;4977868;28;20134;-89
2020/12/17 20:14:33;;;;;;;11.93;7.55;;;8.70;98.60;;;;;;4993910;28;20459;-89
2020/12/17 20:17:02;;;;;;;16.00;8.10;;;8.60;98.20;;;;;;4992217;28;20054;-88
2020/12/17 20:19:29;;;;;;;11.77;5.82;;;8.50;98.40;;;;;;4991740;28;20046;-91
2020/12/17 20:21:58;;;;;;;12.65;6.95;;;8.40;98.00;;;;;;4992755;28;20085;-88
2020/12/17 20:24:26;;;;;;;10.60;6.43;;;8.20;98.80;;;;;;4993443;28;20135;-88
2020/12/17 20:26:52;;;;;;;9.68;5.90;;;8.10;99.70;;;;;;4993182;28;20073;-92
2020/12/17 20:29:19;;;;;;;13.40;8.07;;;8.00;99.50;;;;;;4993507;28;20125;-88
2020/12/17 20:31:46;;;;;;;12.20;7.82;;;8.00;99.90;;;;;;4992872;28;20445;-87
2020/12/17 20:34:12;;;;;;;16.75;10.43;;;8.00;99.90;;;;;;4993094;28;20129;-87
2020/12/17 20:36:39;;;;;;;15.75;10.05;;;8.10;99.90;;;;;;4993796;28;20408;-91
2020/12/17 20:39:06;;;;;;;12.57;7.65;;;8.00;99.90;;;;;;4993992;28;20080;-86
2020/12/17 20:41:35;;;;;;;10.75;6.85;;;8.20;99.60;;;;;;4992990;28;20053;-87
2020/12/17 20:44:03;;;;;;;12.00;7.65;;;8.00;99.30;;;;;;4990909;28;20126;-89
2020/12/17 20:46:31;;;;;;;15.77;10.88;;;8.00;99.80;;;;;;4993673;28;20058;-90
2020/12/17 20:48:58;;;;;;;19.17;12.60;;;7.90;99.90;;;;;;4990156;28;20046;-90
2020/12/17 20:51:25;;;;;;;15.70;10.60;;;7.90;99.90;;;;;;4990886;28;20053;-89
2020/12/17 20:53:52;;;;;;;17.35;10.77;;;7.90;99.90;;;;;;4992431;28;20133;-89
2020/12/17 20:56:19;;;;;;;17.25;11.05;;;8.00;99.80;;;;;;4988483;28;20054;-89
2020/12/17 20:58:47;;;;;;;19.10;10.70;;;7.90;99.90;;;;;;4996281;28;20054;-89
2020/12/17 21:01:17;;;;;;;17.17;10.88;;;7.90;99.90;;;;;;4995984;28;20074;-89
2020/12/17 21:03:44;;;;;;;22.23;13.45;;;8.00;99.90;;;;;;4996051;28;20129;-88
2020/12/17 21:06:13;;;;;;;23.48;13.80;;;8.00;99.80;;;;;;4996405;28;20047;-89
2020/12/17 21:08:42;;;;;;;17.25;10.95;;;8.00;99.70;;;;;;4978492;28;20116;-87
2020/12/17 21:11:12;;;;;;;13.35;9.07;;;8.00;99.60;;;;;;4996293;28;20046;-87
2020/12/17 21:13:40;;;;;;;16.92;10.10;;;8.10;99.50;;;;;;4996036;28;20058;-88
2020/12/17 21:16:10;;;;;;;13.65;9.18;;;8.20;99.40;;;;;;4963777;28;20480;-87
2020/12/17 21:18:37;;;;;;;15.32;9.75;;;8.20;99.40;;;;;;4996182;28;20066;-87
2020/12/17 21:21:04;;;;;;;12.85;8.88;;;8.20;99.00;;;;;;4996362;28;20134;-88
2020/12/17 21:23:31;;;;;;;13.63;8.25;;;8.10;98.90;;;;;;4979078;28;20160;-88